sensor_id;sensor_type;location;lat;lon;timestamp;pressure;altitude;pressure_sealevel;temperature;humidity
38939;BME280;24211;49.980;19.776;2023-01-05T00:02:03;98965.75;;;8.13;100.00
38939;BME280;24211;49.980;19.776;2023-01-05T00:04:30;98960.44;;;8.13;100.00
38939;BME280;24211;49.980;19.776;2023-01-05T00:06:58;98964.69;;;8.14;100.00
38939;BME280;24211;49.980;19.776;2023-01-05T00:09:25;98947.72;;;8.15;100.00
38939;BME280;24211;49.980;19.776;2023-01-05T00:11:52;98951.41;;;8.14;100.00
38939;BME280;24211;49.980;19.776;2023-01-05T00:14:38;98958.34;;;8.15;100.00
38939;BME280;24211;49.980;19.776;2023-01-05T00:17:24;98950.38;;;8.15;100.00
38939;BME280;24211;49.980;19.776;2023-01-05T00:20:16;98952.59;;;8.18;100.00
38939;BME280;24211;49.980;19.776;2023-01-05T00:23:03;98940.91;;;8.19;100.00
38939;BME280;24211;49.980;19.776;2023-01-05T00:25:35;98939.88;;;8.20;100.00
38939;BME280;24211;49.980;19.776;2023-01-05T00:28:04;98940.72;;;8.20;100.00
38939;BME280;24211;49.980;19.776;2023-01-05T00:30:37;98934.56;;;8.20;100.00
38939;BME280;24211;49.980;19.776;2023-01-05T00:33:15;98926.59;;;8.20;100.00
38939;BME280;24211;49.980;19.776;2023-01-05T00:35:43;98936.19;;;8.21;100.00
38939;BME280;24211;49.980;19.776;2023-01-05T00:38:20;98946.81;;;8.21;100.00
38939;BME280;24211;49.980;19.776;2023-01-05T00:40:48;98941.50;;;8.21;100.00
38939;BME280;24211;49.980;19.776;2023-01-05T00:43:16;98932.50;;;8.22;100.00
38939;BME280;24211;49.980;19.776;2023-01-05T00:45:43;98925.09;;;8.24;100.00
38939;BME280;24211;49.980;19.776;2023-01-05T00:48:11;98926.94;;;8.23;100.00
38939;BME280;24211;49.980;19.776;2023-01-05T00:50:38;98923.88;;;8.26;100.00
38939;BME280;24211;49.980;19.776;2023-01-05T00:53:05;98930.84;;;8.27;100.00
38939;BME280;24211;49.980;19.776;2023-01-05T00:55:33;98918.94;;;8.30;100.00
38939;BME280;24211;49.980;19.776;2023-01-05T00:58:00;98913.97;;;8.33;100.00
38939;BME280;24211;49.980;19.776;2023-01-05T01:00:27;98906.22;;;8.32;100.00
38939;BME280;24211;49.980;19.776;2023-01-05T01:02:55;98898.00;;;8.33;100.00
38939;BME280;24211;49.980;19.776;2023-01-05T01:05:22;98898.81;;;8.34;100.00
38939;BME280;24211;49.980;19.776;2023-01-05T01:07:50;98892.47;;;8.35;100.00
38939;BME280;24211;49.980;19.776;2023-01-05T01:10:18;98897.56;;;8.36;100.00
38939;BME280;24211;49.980;19.776;2023-01-05T01:12:46;98887.75;;;8.37;100.00
38939;BME280;24211;49.980;19.776;2023-01-05T01:15:13;98888.56;;;8.37;100.00
38939;BME280;24211;49.980;19.776;2023-01-05T01:19:46;98883.44;;;8.36;100.00
38939;BME280;24211;49.980;19.776;2023-01-05T01:22:28;98883.66;;;8.34;100.00
38939;BME280;24211;49.980;19.776;2023-01-05T01:24:55;98883.66;;;8.34;100.00
38939;BME280;24211;49.980;19.776;2023-01-05T01:27:23;98876.28;;;8.36;100.00
38939;BME280;24211;49.980;19.776;2023-01-05T01:29:50;98870.13;;;8.36;100.00
38939;BME280;24211;49.980;19.776;2023-01-05T01:32:17;98852.06;;;8.38;100.00
38939;BME280;24211;49.980;19.776;2023-01-05T01:34:45;98860.06;;;8.38;100.00
38939;BME280;24211;49.980;19.776;2023-01-05T01:37:39;98836.09;;;8.38;100.00
38939;BME280;24211;49.980;19.776;2023-01-05T01:40:08;98845.16;;;8.37;100.00
38939;BME280;24211;49.980;19.776;2023-01-05T01:42:37;98850.03;;;8.40;100.00
38939;BME280;24211;49.980;19.776;2023-01-05T01:46:02;98855.94;;;8.42;100.00
38939;BME280;24211;49.980;19.776;2023-01-05T01:48:57;98866.59;;;8.42;100.00
38939;BME280;24211;49.980;19.776;2023-01-05T01:51:44;98847.38;;;8.40;100.00
38939;BME280;24211;49.980;19.776;2023-01-05T02:05:10;98830.00;;;8.37;100.00
38939;BME280;24211;49.980;19.776;2023-01-05T02:14:16;98799.88;;;8.37;100.00
38939;BME280;24211;49.980;19.776;2023-01-05T02:17:03;98788.41;;;8.36;100.00
38939;BME280;24211;49.980;19.776;2023-01-05T02:32:27;98785.41;;;8.33;100.00
38939;BME280;24211;49.980;19.776;2023-01-05T02:43:27;98780.50;;;8.30;100.00
38939;BME280;24211;49.980;19.776;2023-01-05T02:45:56;98782.13;;;8.31;100.00
38939;BME280;24211;49.980;19.776;2023-01-05T02:54:40;98783.75;;;8.32;100.00
38939;BME280;24211;49.980;19.776;2023-01-05T02:57:41;98765.72;;;8.34;100.00
38939;BME280;24211;49.980;19.776;2023-01-05T03:00:26;98762.59;;;8.37;100.00
38939;BME280;24211;49.980;19.776;2023-01-05T03:03:21;98762.97;;;8.40;100.00
38939;BME280;24211;49.980;19.776;2023-01-05T03:06:02;98756.38;;;8.43;100.00
38939;BME280;24211;49.980;19.776;2023-01-05T03:19:29;98720.88;;;8.49;100.00
38939;BME280;24211;49.980;19.776;2023-01-05T03:32:50;98700.84;;;8.58;100.00
38939;BME280;24211;49.980;19.776;2023-01-05T03:35:45;98701.69;;;8.59;100.00
38939;BME280;24211;49.980;19.776;2023-01-05T03:38:27;98694.50;;;8.59;100.00
38939;BME280;24211;49.980;19.776;2023-01-05T03:41:04;98695.31;;;8.60;100.00
38939;BME280;24211;49.980;19.776;2023-01-05T03:43:40;98682.59;;;8.62;100.00
38939;BME280;24211;49.980;19.776;2023-01-05T03:46:20;98693.25;;;8.62;100.00
38939;BME280;24211;49.980;19.776;2023-01-05T03:48:49;98682.94;;;8.65;100.00
38939;BME280;24211;49.980;19.776;2023-01-05T03:51:19;98671.50;;;8.65;100.00
38939;BME280;24211;49.980;19.776;2023-01-05T03:53:47;98676.34;;;8.68;100.00
38939;BME280;24211;49.980;19.776;2023-01-05T03:56:57;98669.75;;;8.70;100.00
38939;BME280;24211;49.980;19.776;2023-01-05T03:59:24;98673.00;;;8.72;100.00
38939;BME280;24211;49.980;19.776;2023-01-05T04:01:52;98665.59;;;8.74;100.00
38939;BME280;24211;49.980;19.776;2023-01-05T04:04:20;98665.59;;;8.74;100.00
38939;BME280;24211;49.980;19.776;2023-01-05T04:10:38;98665.59;;;8.74;100.00
38939;BME280;24211;49.980;19.776;2023-01-05T04:13:07;98657.59;;;8.74;100.00
38939;BME280;24211;49.980;19.776;2023-01-05T04:15:35;98664.53;;;8.75;100.00
38939;BME280;24211;49.980;19.776;2023-01-05T04:18:29;98658.19;;;8.76;100.00
38939;BME280;24211;49.980;19.776;2023-01-05T04:20:57;98670.44;;;8.77;100.00
38939;BME280;24211;49.980;19.776;2023-01-05T04:23:25;98657.75;;;8.79;100.00
38939;BME280;24211;49.980;19.776;2023-01-05T04:31:19;98665.13;;;8.77;100.00
38939;BME280;24211;49.980;19.776;2023-01-05T04:33:48;98666.19;;;8.76;100.00
38939;BME280;24211;49.980;19.776;2023-01-05T04:40:09;98675.19;;;8.75;100.00
38939;BME280;24211;49.980;19.776;2023-01-05T04:42:48;98675.19;;;8.75;100.00
38939;BME280;24211;49.980;19.776;2023-01-05T04:54:59;98652.97;;;8.81;100.00
38939;BME280;24211;49.980;19.776;2023-01-05T05:07:47;98644.66;;;8.89;100.00
38939;BME280;24211;49.980;19.776;2023-01-05T05:10:27;98646.41;;;8.95;100.00
38939;BME280;24211;49.980;19.776;2023-01-05T05:12:57;98642.22;;;8.99;100.00
38939;BME280;24211;49.980;19.776;2023-01-05T05:15:34;98655.66;;;9.04;100.00
38939;BME280;24211;49.980;19.776;2023-01-05T05:18:08;98648.28;;;9.06;100.00
38939;BME280;24211;49.980;19.776;2023-01-05T05:20:43;98644.09;;;9.10;100.00
38939;BME280;24211;49.980;19.776;2023-01-05T05:23:11;98634.47;;;9.09;100.00
38939;BME280;24211;49.980;19.776;2023-01-05T05:25:42;98619.53;;;9.08;100.00
38939;BME280;24211;49.980;19.776;2023-01-05T06:44:57;98680.78;;;8.74;100.00
38939;BME280;24211;49.980;19.776;2023-01-05T06:53:20;98657.47;;;8.69;100.00
38939;BME280;24211;49.980;19.776;2023-01-05T07:01:31;98658.75;;;8.67;100.00
38939;BME280;24211;49.980;19.776;2023-01-05T07:04:07;98654.25;;;8.67;100.00
38939;BME280;24211;49.980;19.776;2023-01-05T07:06:35;98671.00;;;8.68;100.00
38939;BME280;24211;49.980;19.776;2023-01-05T07:09:55;98679.81;;;8.68;100.00
38939;BME280;24211;49.980;19.776;2023-01-05T07:13:15;98682.47;;;8.68;100.00
38939;BME280;24211;49.980;19.776;2023-01-05T07:15:43;98689.44;;;8.69;100.00
38939;BME280;24211;49.980;19.776;2023-01-05T07:18:10;98703.78;;;8.68;100.00
38939;BME280;24211;49.980;19.776;2023-01-05T07:20:37;98704.84;;;8.67;100.00
38939;BME280;24211;49.980;19.776;2023-01-05T07:23:05;98736.19;;;8.65;100.00
38939;BME280;24211;49.980;19.776;2023-01-05T07:25:51;98740.38;;;8.61;100.00
38939;BME280;24211;49.980;19.776;2023-01-05T07:35:22;98766.19;;;8.61;100.00
38939;BME280;24211;49.980;19.776;2023-01-05T07:43:20;98788.16;;;8.56;100.00
38939;BME280;24211;49.980;19.776;2023-01-05T07:45:47;98795.72;;;8.59;100.00
38939;BME280;24211;49.980;19.776;2023-01-05T07:48:14;98800.91;;;8.54;100.00
38939;BME280;24211;49.980;19.776;2023-01-05T07:50:49;98814.06;;;8.49;100.00
38939;BME280;24211;49.980;19.776;2023-01-05T07:53:16;98819.63;;;8.47;100.00
38939;BME280;24211;49.980;19.776;2023-01-05T07:55:43;98820.06;;;8.44;100.00
38939;BME280;24211;49.980;19.776;2023-01-05T07:58:10;98807.78;;;8.43;100.00
38939;BME280;24211;49.980;19.776;2023-01-05T08:01:53;98819.09;;;8.39;100.00
38939;BME280;24211;49.980;19.776;2023-01-05T08:04:20;98808.06;;;8.35;100.00
38939;BME280;24211;49.980;19.776;2023-01-05T08:06:48;98806.22;;;8.36;100.00
38939;BME280;24211;49.980;19.776;2023-01-05T08:09:15;98807.88;;;8.37;100.00
38939;BME280;24211;49.980;19.776;2023-01-05T08:12:01;98819.38;;;8.31;100.00
38939;BME280;24211;49.980;19.776;2023-01-05T08:14:29;98824.38;;;8.21;100.00
38939;BME280;24211;49.980;19.776;2023-01-05T08:21:30;98829.19;;;8.12;100.00
38939;BME280;24211;49.980;19.776;2023-01-05T08:23:58;98832.09;;;8.11;100.00
38939;BME280;24211;49.980;19.776;2023-01-05T08:26:26;98837.25;;;8.06;100.00
38939;BME280;24211;49.980;19.776;2023-01-05T08:28:53;98829.91;;;8.01;100.00
38939;BME280;24211;49.980;19.776;2023-01-05T08:31:26;98830.38;;;7.98;100.00
38939;BME280;24211;49.980;19.776;2023-01-05T08:33:56;98815.19;;;7.99;100.00
38939;BME280;24211;49.980;19.776;2023-01-05T08:36:27;98813.94;;;8.01;100.00
38939;BME280;24211;49.980;19.776;2023-01-05T08:38:55;98814.19;;;8.00;100.00
38939;BME280;24211;49.980;19.776;2023-01-05T08:41:29;98816.84;;;8.00;100.00
38939;BME280;24211;49.980;19.776;2023-01-05T08:43:59;98824.59;;;8.01;100.00
38939;BME280;24211;49.980;19.776;2023-01-05T08:46:31;98829.97;;;7.95;100.00
38939;BME280;24211;49.980;19.776;2023-01-05T08:55:00;98838.56;;;7.97;100.00
38939;BME280;24211;49.980;19.776;2023-01-05T09:02:48;98826.34;;;7.89;100.00
38939;BME280;24211;49.980;19.776;2023-01-05T09:11:36;98817.72;;;7.94;100.00
38939;BME280;24211;49.980;19.776;2023-01-05T09:36:33;98813.16;;;8.01;100.00
38939;BME280;24211;49.980;19.776;2023-01-05T09:39:05;98815.06;;;8.12;100.00
38939;BME280;24211;49.980;19.776;2023-01-05T09:41:45;98810.28;;;8.20;100.00
38939;BME280;24211;49.980;19.776;2023-01-05T09:44:32;98818.59;;;8.30;100.00
38939;BME280;24211;49.980;19.776;2023-01-05T09:49:49;98810.69;;;8.42;100.00
38939;BME280;24211;49.980;19.776;2023-01-05T09:52:20;98815.56;;;8.45;100.00
38939;BME280;24211;49.980;19.776;2023-01-05T09:54:48;98809.78;;;8.48;100.00
38939;BME280;24211;49.980;19.776;2023-01-05T09:57:24;98806.09;;;8.49;100.00
38939;BME280;24211;49.980;19.776;2023-01-05T09:59:58;98814.66;;;8.51;100.00
38939;BME280;24211;49.980;19.776;2023-01-05T10:02:48;98811.78;;;8.52;100.00
38939;BME280;24211;49.980;19.776;2023-01-05T10:05:17;98807.25;;;8.53;100.00
38939;BME280;24211;49.980;19.776;2023-01-05T10:07:59;98799.84;;;8.55;100.00
38939;BME280;24211;49.980;19.776;2023-01-05T10:10:51;98796.75;;;8.58;100.00
38939;BME280;24211;49.980;19.776;2023-01-05T10:14:12;98794.06;;;8.58;100.00
38939;BME280;24211;49.980;19.776;2023-01-05T10:16:48;98797.31;;;8.60;100.00
38939;BME280;24211;49.980;19.776;2023-01-05T10:19:37;98790.38;;;8.59;100.00
38939;BME280;24211;49.980;19.776;2023-01-05T10:23:12;98792.00;;;8.60;100.00
38939;BME280;24211;49.980;19.776;2023-01-05T10:33:32;98759.75;;;8.80;100.00
38939;BME280;24211;49.980;19.776;2023-01-05T10:36:49;98762.50;;;8.91;100.00
38939;BME280;24211;49.980;19.776;2023-01-05T10:40:26;98756.16;;;9.04;100.00
38939;BME280;24211;49.980;19.776;2023-01-05T10:45:42;98750.84;;;9.27;100.00
38939;BME280;24211;49.980;19.776;2023-01-05T10:48:34;98731.72;;;9.42;100.00
38939;BME280;24211;49.980;19.776;2023-01-05T10:51:04;98738.94;;;9.53;100.00
38939;BME280;24211;49.980;19.776;2023-01-05T10:53:37;98727.34;;;9.59;100.00
38939;BME280;24211;49.980;19.776;2023-01-05T10:56:25;98729.09;;;9.65;100.00
38939;BME280;24211;49.980;19.776;2023-01-05T10:59:14;98731.97;;;9.75;100.00
38939;BME280;24211;49.980;19.776;2023-01-05T11:01:47;98730.47;;;9.79;100.00
38939;BME280;24211;49.980;19.776;2023-01-05T11:04:22;98724.09;;;9.80;100.00
38939;BME280;24211;49.980;19.776;2023-01-05T11:17:26;98712.91;;;9.83;100.00
38939;BME280;24211;49.980;19.776;2023-01-05T11:19:57;98718.25;;;9.83;100.00
38939;BME280;24211;49.980;19.776;2023-01-05T11:22:41;98714.31;;;9.85;100.00
38939;BME280;24211;49.980;19.776;2023-01-05T11:25:31;98712.91;;;9.83;100.00
38939;BME280;24211;49.980;19.776;2023-01-05T11:28:15;98710.25;;;9.83;100.00
38939;BME280;24211;49.980;19.776;2023-01-05T11:31:02;98705.16;;;9.81;100.00
38939;BME280;24211;49.980;19.776;2023-01-05T11:33:56;98704.03;;;9.77;100.00
38939;BME280;24211;49.980;19.776;2023-01-05T11:36:25;98710.13;;;9.78;100.00
38939;BME280;24211;49.980;19.776;2023-01-05T11:38:55;98704.22;;;9.76;100.00
38939;BME280;24211;49.980;19.776;2023-01-05T11:41:24;98710.63;;;9.75;100.00
38939;BME280;24211;49.980;19.776;2023-01-05T11:43:53;98707.38;;;9.73;100.00
38939;BME280;24211;49.980;19.776;2023-01-05T11:46:21;98706.56;;;9.72;100.00
38939;BME280;24211;49.980;19.776;2023-01-05T11:48:56;98698.78;;;9.71;100.00
38939;BME280;24211;49.980;19.776;2023-01-05T11:51:48;98701.44;;;9.71;100.00
38939;BME280;24211;49.980;19.776;2023-01-05T11:54:35;98698.78;;;9.71;100.00
38939;BME280;24211;49.980;19.776;2023-01-05T11:57:16;98696.69;;;9.73;100.00
38939;BME280;24211;49.980;19.776;2023-01-05T11:59:45;98697.03;;;9.76;100.00
38939;BME280;24211;49.980;19.776;2023-01-05T12:03:01;98694.50;;;9.81;100.00
38939;BME280;24211;49.980;19.776;2023-01-05T18:34:25;99096.13;;;7.24;100.00
38939;BME280;24211;49.980;19.776;2023-01-05T19:12:40;99153.16;;;7.28;100.00
38939;BME280;24211;49.980;19.776;2023-01-05T19:15:09;99155.63;;;7.30;100.00
38939;BME280;24211;49.980;19.776;2023-01-05T19:17:36;99160.53;;;7.26;100.00
38939;BME280;24211;49.980;19.776;2023-01-05T19:20:04;99157.69;;;7.21;100.00
38939;BME280;24211;49.980;19.776;2023-01-05T19:22:32;99160.94;;;7.23;100.00
38939;BME280;24211;49.980;19.776;2023-01-05T19:25:00;99170.75;;;7.22;100.00
38939;BME280;24211;49.980;19.776;2023-01-05T19:27:28;99170.38;;;7.19;100.00
38939;BME280;24211;49.980;19.776;2023-01-05T19:29:56;99171.97;;;7.20;100.00
38939;BME280;24211;49.980;19.776;2023-01-05T19:32:23;99176.50;;;7.19;100.00
38939;BME280;24211;49.980;19.776;2023-01-05T19:34:50;99182.63;;;7.27;100.00
38939;BME280;24211;49.980;19.776;2023-01-05T19:37:17;99185.25;;;7.33;100.00
38939;BME280;24211;49.980;19.776;2023-01-05T19:39:44;99189.97;;;7.31;100.00
38939;BME280;24211;49.980;19.776;2023-01-05T19:42:11;99184.66;;;7.31;100.00
38939;BME280;24211;49.980;19.776;2023-01-05T19:44:39;99192.84;;;7.36;100.00
38939;BME280;24211;49.980;19.776;2023-01-05T19:47:06;99202.03;;;7.34;100.00
38939;BME280;24211;49.980;19.776;2023-01-05T19:49:34;99209.81;;;7.29;100.00
38939;BME280;24211;49.980;19.776;2023-01-05T19:52:02;99220.66;;;7.27;100.00
38939;BME280;24211;49.980;19.776;2023-01-05T19:54:30;99224.31;;;7.26;100.00
38939;BME280;24211;49.980;19.776;2023-01-05T19:56:56;99227.38;;;7.23;100.00
38939;BME280;24211;49.980;19.776;2023-01-05T19:59:25;99226.78;;;7.21;100.00
38939;BME280;24211;49.980;19.776;2023-01-05T20:02:03;99242.31;;;7.24;100.00
38939;BME280;24211;49.980;19.776;2023-01-05T20:04:31;99258.69;;;7.21;100.00
38939;BME280;24211;49.980;19.776;2023-01-05T20:06:59;99263.38;;;7.19;100.00
38939;BME280;24211;49.980;19.776;2023-01-05T20:09:30;99261.53;;;7.13;100.00
38939;BME280;24211;49.980;19.776;2023-01-05T20:11:57;99265.63;;;7.09;100.00
38939;BME280;24211;49.980;19.776;2023-01-05T20:14:39;99275.44;;;7.08;100.00
38939;BME280;24211;49.980;19.776;2023-01-05T20:17:09;99279.91;;;7.08;100.00
38939;BME280;24211;49.980;19.776;2023-01-05T20:19:38;99278.28;;;7.07;100.00
38939;BME280;24211;49.980;19.776;2023-01-05T20:22:07;99278.28;;;7.07;100.00
38939;BME280;24211;49.980;19.776;2023-01-05T20:24:40;99279.31;;;6.99;100.00
38939;BME280;24211;49.980;19.776;2023-01-05T20:27:12;99289.72;;;6.94;100.00
38939;BME280;24211;49.980;19.776;2023-01-05T20:29:40;99289.50;;;6.96;100.00
38939;BME280;24211;49.980;19.776;2023-01-05T20:32:16;99298.31;;;6.90;100.00
38939;BME280;24211;49.980;19.776;2023-01-05T20:34:49;99294.16;;;6.81;100.00
38939;BME280;24211;49.980;19.776;2023-01-05T20:37:19;99315.47;;;6.87;100.00
38939;BME280;24211;49.980;19.776;2023-01-05T20:39:47;99318.72;;;6.83;100.00
38939;BME280;24211;49.980;19.776;2023-01-05T20:42:14;99327.47;;;6.83;100.00
38939;BME280;24211;49.980;19.776;2023-01-05T20:44:44;99336.28;;;6.84;100.00
38939;BME280;24211;49.980;19.776;2023-01-05T20:47:13;99333.78;;;6.76;100.00
38939;BME280;24211;49.980;19.776;2023-01-05T20:49:43;99341.97;;;6.81;100.00
38939;BME280;24211;49.980;19.776;2023-01-05T20:52:15;99360.78;;;6.73;100.00
38939;BME280;24211;49.980;19.776;2023-01-05T20:54:43;99362.38;;;6.74;100.00
38939;BME280;24211;49.980;19.776;2023-01-05T20:57:11;99369.38;;;6.81;100.00
38939;BME280;24211;49.980;19.776;2023-01-05T20:59:38;99373.84;;;6.81;100.00
38939;BME280;24211;49.980;19.776;2023-01-05T21:02:11;99376.66;;;6.66;100.00
38939;BME280;24211;49.980;19.776;2023-01-05T21:04:51;99374.22;;;6.65;100.00
38939;BME280;24211;49.980;19.776;2023-01-05T21:07:19;99391.38;;;6.62;100.00
38939;BME280;24211;49.980;19.776;2023-01-05T21:09:49;99399.31;;;6.55;100.00
38939;BME280;24211;49.980;19.776;2023-01-05T21:12:17;99396.03;;;6.53;100.00
38939;BME280;24211;49.980;19.776;2023-01-05T21:14:45;99400.06;;;6.49;100.00
38939;BME280;24211;49.980;19.776;2023-01-05T21:17:12;99404.19;;;6.52;100.00
38939;BME280;24211;49.980;19.776;2023-01-05T21:19:39;99399.47;;;6.47;100.00
38939;BME280;24211;49.980;19.776;2023-01-05T21:22:07;99401.88;;;6.42;100.00
38939;BME280;24211;49.980;19.776;2023-01-05T21:24:35;99413.50;;;6.41;100.00
38939;BME280;24211;49.980;19.776;2023-01-05T21:27:03;99419.59;;;6.35;100.00
38939;BME280;24211;49.980;19.776;2023-01-05T21:29:31;99424.44;;;6.25;100.00
38939;BME280;24211;49.980;19.776;2023-01-05T21:31:58;99434.28;;;6.31;100.00
38939;BME280;24211;49.980;19.776;2023-01-05T21:34:26;99432.53;;;6.17;100.00
38939;BME280;24211;49.980;19.776;2023-01-05T21:36:53;99441.69;;;6.15;100.00
38939;BME280;24211;49.980;19.776;2023-01-05T21:39:23;99449.50;;;6.16;100.00
38939;BME280;24211;49.980;19.776;2023-01-05T21:41:52;99448.66;;;6.16;100.00
38939;BME280;24211;49.980;19.776;2023-01-05T21:44:39;99449.09;;;6.19;100.00
38939;BME280;24211;49.980;19.776;2023-01-05T21:47:07;99453.16;;;6.15;100.00
38939;BME280;24211;49.980;19.776;2023-01-05T21:49:35;99457.59;;;6.08;100.00
38939;BME280;24211;49.980;19.776;2023-01-05T21:52:03;99462.88;;;6.08;100.00
38939;BME280;24211;49.980;19.776;2023-01-05T21:54:50;99483.38;;;6.14;100.00
38939;BME280;24211;49.980;19.776;2023-01-05T21:57:35;99491.81;;;6.03;100.00
38939;BME280;24211;49.980;19.776;2023-01-05T22:00:04;99481.59;;;6.00;100.00
38939;BME280;24211;49.980;19.776;2023-01-05T22:02:32;99486.16;;;6.06;100.00
38939;BME280;24211;49.980;19.776;2023-01-05T22:04:59;99490.66;;;6.12;100.00
38939;BME280;24211;49.980;19.776;2023-01-05T22:07:29;99486.78;;;6.08;100.00
38939;BME280;24211;49.980;19.776;2023-01-05T22:09:56;99501.44;;;6.04;100.00
38939;BME280;24211;49.980;19.776;2023-01-05T22:12:23;99490.81;;;6.04;100.00
38939;BME280;24211;49.980;19.776;2023-01-05T22:14:50;99502.38;;;5.97;100.00
38939;BME280;24211;49.980;19.776;2023-01-05T22:17:17;99497.09;;;5.97;100.00
38939;BME280;24211;49.980;19.776;2023-01-05T22:19:45;99499.13;;;5.95;100.00
38939;BME280;24211;49.980;19.776;2023-01-05T22:22:12;99506.50;;;5.99;100.00
38939;BME280;24211;49.980;19.776;2023-01-05T22:24:40;99503.75;;;5.92;100.00
38939;BME280;24211;49.980;19.776;2023-01-05T22:27:08;99514.56;;;5.91;100.00
38939;BME280;24211;49.980;19.776;2023-01-05T22:29:35;99520.72;;;5.91;100.00
38939;BME280;24211;49.980;19.776;2023-01-05T22:32:03;99521.06;;;5.88;100.00
38939;BME280;24211;49.980;19.776;2023-01-05T22:34:30;99522.28;;;5.86;100.00
38939;BME280;24211;49.980;19.776;2023-01-05T22:36:58;99528.03;;;5.89;100.00
38939;BME280;24211;49.980;19.776;2023-01-05T22:39:25;99527.91;;;5.83;100.00
38939;BME280;24211;49.980;19.776;2023-01-05T22:41:52;99535.25;;;5.81;100.00
38939;BME280;24211;49.980;19.776;2023-01-05T22:44:20;99537.38;;;5.85;100.00
38939;BME280;24211;49.980;19.776;2023-01-05T22:46:47;99546.34;;;5.84;100.00
38939;BME280;24211;49.980;19.776;2023-01-05T22:49:14;99546.84;;;5.80;100.00
38939;BME280;24211;49.980;19.776;2023-01-05T22:51:42;99542.91;;;5.90;100.00
38939;BME280;24211;49.980;19.776;2023-01-05T22:54:11;99551.97;;;5.96;100.00
38939;BME280;24211;49.980;19.776;2023-01-05T22:56:38;99558.66;;;5.92;100.00
38939;BME280;24211;49.980;19.776;2023-01-05T22:59:06;99560.28;;;5.93;100.00
38939;BME280;24211;49.980;19.776;2023-01-05T23:01:39;99563.97;;;5.92;100.00
38939;BME280;24211;49.980;19.776;2023-01-05T23:04:11;99561.75;;;5.96;100.00
38939;BME280;24211;49.980;19.776;2023-01-05T23:06:39;99562.31;;;5.91;100.00
38939;BME280;24211;49.980;19.776;2023-01-05T23:09:13;99572.56;;;5.94;100.00
38939;BME280;24211;49.980;19.776;2023-01-05T23:11:42;99572.56;;;5.94;100.00
38939;BME280;24211;49.980;19.776;2023-01-05T23:14:13;99578.22;;;5.91;100.00
38939;BME280;24211;49.980;19.776;2023-01-05T23:16:40;99578.59;;;5.88;100.00
38939;BME280;24211;49.980;19.776;2023-01-05T23:19:08;99587.19;;;5.90;100.00
38939;BME280;24211;49.980;19.776;2023-01-05T23:21:35;99582.53;;;5.92;100.00
38939;BME280;24211;49.980;19.776;2023-01-05T23:24:04;99586.44;;;5.96;100.00
38939;BME280;24211;49.980;19.776;2023-01-05T23:26:31;99601.47;;;5.89;100.00
38939;BME280;24211;49.980;19.776;2023-01-05T23:28:58;99592.50;;;5.90;100.00
38939;BME280;24211;49.980;19.776;2023-01-05T23:31:28;99601.84;;;5.86;100.00
38939;BME280;24211;49.980;19.776;2023-01-05T23:33:56;99613.63;;;5.83;100.00
38939;BME280;24211;49.980;19.776;2023-01-05T23:36:24;99609.13;;;5.84;100.00
38939;BME280;24211;49.980;19.776;2023-01-05T23:38:51;99616.09;;;5.85;100.00
38939;BME280;24211;49.980;19.776;2023-01-05T23:41:19;99617.38;;;5.89;100.00
38939;BME280;24211;49.980;19.776;2023-01-05T23:43:47;99627.16;;;5.88;100.00
38939;BME280;24211;49.980;19.776;2023-01-05T23:46:18;99619.00;;;5.90;100.00
38939;BME280;24211;49.980;19.776;2023-01-05T23:48:50;99630.03;;;5.87;100.00
38939;BME280;24211;49.980;19.776;2023-01-05T23:51:17;99635.81;;;5.82;100.00
38939;BME280;24211;49.980;19.776;2023-01-05T23:53:48;99647.13;;;5.84;100.00
38939;BME280;24211;49.980;19.776;2023-01-05T23:56:25;99636.94;;;5.88;100.00
38939;BME280;24211;49.980;19.776;2023-01-05T23:58:59;99645.94;;;5.87;100.00
